Time;durP1;ratioP1;P1;durP2;ratioP2;P2;SDS_P1;SDS_P2;PMS_P1;PMS_P2;Temp;Humidity;BMP_temperature;BMP_pressure;BME280_temperature;BME280_humidity;BME280_pressure;Samples;Min_cycle;Max_cycle;Signal;HPM_P1;HPM_P2
2022/08/17 00:01:22;;;;;;;32.47;28.92;;;21.30;99.90;;;;;;5014099;28;20128;-68
2022/08/17 00:03:49;;;;;;;31.20;28.15;;;21.30;99.90;;;;;;5014436;28;20077;-67
2022/08/17 00:06:21;;;;;;;33.67;30.02;;;21.20;99.90;;;;;;5012834;28;20116;-68
2022/08/17 00:08:53;;;;;;;30.45;27.20;;;21.20;99.90;;;;;;5014141;28;20081;-67
2022/08/17 00:11:23;;;;;;;32.10;28.73;;;21.20;99.90;;;;;;5013479;28;20061;-67
2022/08/17 00:13:56;;;;;;;31.95;28.55;;;21.20;99.90;;;;;;5013177;28;20133;-67
2022/08/17 00:16:30;;;;;;;31.77;28.35;;;21.10;99.90;;;;;;5013952;28;20042;-66
2022/08/17 00:18:59;;;;;;;;;;;21.10;99.90;;;;;;5013392;28;20499;-67
2022/08/17 00:21:26;;;;;;;31.65;28.38;;;21.10;99.90;;;;;;4996436;28;19922;-66
2022/08/17 00:23:53;;;;;;;31.27;27.17;;;21.10;99.90;;;;;;5014067;28;20054;-66
2022/08/17 00:26:21;;;;;;;31.88;28.55;;;21.00;99.90;;;;;;5013616;28;20096;-67
2022/08/17 00:28:46;;;;;;;32.45;28.92;;;21.10;99.90;;;;;;4996226;28;20534;-67
2022/08/17 00:31:13;;;;;;;33.30;28.98;;;21.10;99.90;;;;;;5013529;28;20050;-67
2022/08/17 00:33:41;;;;;;;30.70;27.50;;;21.10;99.90;;;;;;5013925;28;20046;-67
2022/08/17 00:36:07;;;;;;;31.77;27.60;;;21.00;99.90;;;;;;5012674;28;20133;-66
2022/08/17 00:38:34;;;;;;;32.05;28.48;;;21.00;99.90;;;;;;5013250;28;20053;-67
2022/08/17 00:41:22;;;;;;;36.33;29.63;;;21.00;99.90;;;;;;4996344;28;20061;-67
2022/08/17 00:43:57;;;;;;;32.25;28.77;;;21.00;99.90;;;;;;5012490;28;20053;-67
2022/08/17 00:46:27;;;;;;;33.30;29.80;;;20.90;99.90;;;;;;5011639;28;20133;-67
2022/08/17 00:48:54;;;;;;;33.20;29.63;;;20.90;99.90;;;;;;5012116;28;20046;-68
2022/08/17 00:51:46;;;;;;;33.08;28.98;;;20.90;99.90;;;;;;5011986;28;20123;-67
2022/08/17 00:54:34;;;;;;;33.72;30.17;;;20.80;99.90;;;;;;5011094;28;20145;-69
2022/08/17 00:57:09;;;;;;;33.78;30.27;;;20.80;99.90;;;;;;5013283;28;20069;-67
2022/08/17 00:59:40;;;;;;;32.88;29.15;;;20.80;99.90;;;;;;5011669;28;20108;-67
2022/08/17 01:02:08;;;;;;;33.60;30.13;;;20.80;99.90;;;;;;5013368;28;20084;-67
2022/08/17 01:04:35;;;;;;;34.90;31.17;;;20.70;99.90;;;;;;5012641;28;20083;-67
2022/08/17 01:07:03;;;;;;;33.95;30.25;;;20.70;99.90;;;;;;5011921;28;20097;-66
2022/08/17 01:09:30;;;;;;;35.13;30.75;;;20.60;99.90;;;;;;5012668;28;20042;-67
2022/08/17 01:11:56;;;;;;;35.75;31.13;;;20.50;99.90;;;;;;5011699;28;20053;-66
2022/08/17 01:14:24;;;;;;;33.00;29.67;;;20.50;99.90;;;;;;4995385;28;20399;-67
2022/08/17 01:16:52;;;;;;;34.53;30.80;;;20.50;99.90;;;;;;5012716;28;20046;-67
2022/08/17 01:19:31;;;;;;;34.75;30.90;;;20.50;99.90;;;;;;5011451;28;20045;-67
2022/08/17 01:22:06;;;;;;;35.65;30.73;;;20.40;99.90;;;;;;5012908;28;20411;-67
2022/08/17 01:24:33;;;;;;;33.80;30.17;;;20.40;99.90;;;;;;5012231;28;20553;-67
2022/08/17 01:26:59;;;;;;;33.00;29.55;;;20.40;99.90;;;;;;5012755;28;20053;-66
2022/08/17 01:29:29;;;;;;;34.08;30.48;;;20.40;99.90;;;;;;5012281;28;20077;-68
2022/08/17 01:31:58;;;;;;;34.92;30.00;;;20.40;99.90;;;;;;5011676;28;20050;-66
2022/08/17 01:34:25;;;;;;;33.00;29.55;;;20.40;99.90;;;;;;5012336;28;20061;-67
2022/08/17 01:36:51;;;;;;;32.17;28.80;;;20.30;99.90;;;;;;5012634;28;20053;-68
2022/08/17 01:39:22;;;;;;;35.78;31.00;;;20.30;99.90;;;;;;4995199;28;20050;-67
2022/08/17 01:41:51;;;;;;;38.35;34.25;;;20.30;99.90;;;;;;5011616;28;20565;-67
2022/08/17 01:44:17;;;;;;;38.03;32.42;;;20.30;99.90;;;;;;4995139;28;20151;-67
2022/08/17 01:46:42;;;;;;;36.88;32.95;;;20.30;99.90;;;;;;5012288;28;20085;-67
2022/08/17 01:49:10;;;;;;;41.20;35.28;;;20.30;99.90;;;;;;5012252;28;20068;-67
2022/08/17 01:51:36;;;;;;;40.88;33.78;;;20.30;99.90;;;;;;4994857;28;20491;-67
2022/08/17 01:54:12;;;;;;;38.55;34.38;;;20.30;99.90;;;;;;5012517;28;20045;-67
2022/08/17 01:56:41;;;;;;;38.25;34.17;;;20.30;99.90;;;;;;5011989;28;20064;-67
2022/08/17 01:59:07;;;;;;;39.88;33.00;;;20.30;99.90;;;;;;5011208;28;20380;-67
2022/08/17 02:01:34;;;;;;;37.53;32.33;;;20.30;99.90;;;;;;5012087;28;20072;-67
2022/08/17 02:04:00;;;;;;;39.70;34.38;;;20.20;99.90;;;;;;5011069;28;20049;-66
2022/08/17 02:06:30;;;;;;;38.58;34.33;;;20.20;99.90;;;;;;5011567;28;20096;-67
2022/08/17 02:08:57;;;;;;;38.78;33.55;;;20.10;99.90;;;;;;5012104;28;20052;-67
2022/08/17 02:11:23;;;;;;;39.40;32.92;;;20.10;99.90;;;;;;5010591;28;20158;-68
2022/08/17 02:13:50;;;;;;;40.05;33.50;;;20.00;99.90;;;;;;5011038;28;20092;-67
2022/08/17 02:16:17;;;;;;;39.42;29.48;;;20.00;99.90;;;;;;5012138;28;20407;-66
2022/08/17 02:18:45;;;;;;;53.05;31.33;;;19.90;99.90;;;;;;5011521;28;20041;-67
2022/08/17 02:21:12;;;;;;;33.28;29.88;;;19.90;99.90;;;;;;5010754;28;20085;-66
2022/08/17 02:23:43;;;;;;;32.50;29.02;;;19.90;99.90;;;;;;5011468;28;20493;-67
2022/08/17 02:26:09;;;;;;;33.10;28.23;;;19.80;99.90;;;;;;5010883;28;20125;-67
2022/08/17 02:28:35;;;;;;;42.95;29.05;;;19.80;99.90;;;;;;5011400;28;20134;-67
2022/08/17 02:31:06;;;;;;;53.58;29.15;;;19.80;99.90;;;;;;5011482;28;20050;-66
2022/08/17 02:33:32;;;;;;;41.92;27.65;;;19.80;99.90;;;;;;5010395;28;20072;-67
2022/08/17 02:35:58;;;;;;;33.38;28.08;;;19.70;99.90;;;;;;5011829;28;20045;-67
2022/08/17 02:38:24;;;;;;;44.72;25.88;;;19.70;99.90;;;;;;5011523;28;20392;-67
2022/08/17 02:40:50;;;;;;;31.63;26.52;;;19.70;99.90;;;;;;5010129;28;20180;-66
2022/08/17 02:43:16;;;;;;;39.38;26.77;;;19.70;99.90;;;;;;5010496;28;20180;-67
2022/08/17 02:45:42;;;;;;;28.83;25.67;;;19.60;99.90;;;;;;5010238;28;20053;-68
2022/08/17 02:48:09;;;;;;;27.73;24.92;;;19.60;99.90;;;;;;5010797;28;20395;-67
2022/08/17 02:50:35;;;;;;;28.17;25.27;;;19.60;99.90;;;;;;5010070;28;20057;-67
2022/08/17 02:53:01;;;;;;;29.30;26.10;;;19.60;99.90;;;;;;4993899;28;20522;-67
2022/08/17 02:55:33;;;;;;;30.80;24.45;;;19.60;99.90;;;;;;5011489;28;20050;-69
2022/08/17 02:58:00;;;;;;;34.90;26.00;;;19.60;99.90;;;;;;5010660;28;20068;-67
2022/08/17 03:00:33;;;;;;;86.80;28.95;;;19.60;99.90;;;;;;5010571;28;20125;-67
2022/08/17 03:03:00;;;;;;;33.30;26.97;;;19.60;99.90;;;;;;5011541;28;20056;-67
2022/08/17 03:05:28;;;;;;;44.90;28.13;;;19.60;99.90;;;;;;5011479;28;20050;-66
2022/08/17 03:07:55;;;;;;;58.75;27.08;;;19.50;99.90;;;;;;5010229;28;20090;-66
2022/08/17 03:10:21;;;;;;;44.83;26.45;;;19.60;99.90;;;;;;5010199;28;20049;-66
2022/08/17 03:12:47;;;;;;;70.47;28.00;;;19.60;99.90;;;;;;5011086;28;20411;-66
2022/08/17 03:15:16;;;;;;;52.80;27.05;;;19.50;99.90;;;;;;5010281;28;20535;-66
2022/08/17 03:17:43;;;;;;;37.47;27.48;;;19.50;99.90;;;;;;5012126;28;20049;-66
2022/08/17 03:20:10;;;;;;;42.45;25.95;;;19.50;99.90;;;;;;5015203;28;20192;-66
2022/08/17 03:22:41;;;;;;;31.42;26.23;;;19.40;99.90;;;;;;4997697;28;20042;-67
2022/08/17 03:25:09;;;;;;;28.25;25.05;;;19.40;99.90;;;;;;5014932;28;20058;-68
2022/08/17 03:27:36;;;;;;;53.72;25.90;;;19.40;99.90;;;;;;5014746;28;20384;-67
2022/08/17 03:30:04;;;;;;;137.30;25.75;;;19.40;99.90;;;;;;5013758;28;20034;-66
2022/08/17 03:32:35;;;;;;;30.80;25.60;;;19.40;99.90;;;;;;5013585;28;20046;-69
2022/08/17 03:35:01;;;;;;;158.73;24.88;;;19.40;99.90;;;;;;5014951;28;20213;-67
2022/08/17 03:37:26;;;;;;;108.43;23.98;;;19.40;99.90;;;;;;5013893;28;20053;-67
2022/08/17 03:39:53;;;;;;;153.50;26.73;;;19.30;99.90;;;;;;5014626;28;20045;-66
2022/08/17 03:42:22;;;;;;;161.52;25.70;;;19.30;99.90;;;;;;5013868;28;20050;-67
2022/08/17 03:44:49;;;;;;;35.42;24.67;;;19.20;99.90;;;;;;5013233;28;20436;-68
2022/08/17 03:56:40;;;;;;;28.50;25.35;;;19.20;99.90;;;;;;5013193;28;20063;-67
2022/08/17 03:58:36;;;;;;;29.80;24.73;;;19.20;99.90;;;;;;5013570;28;20049;-69
2022/08/17 04:01:06;;;;;;;50.03;23.55;;;19.20;99.90;;;;;;5013121;28;20136;-67
2022/08/17 04:03:32;;;;;;;43.33;23.70;;;19.20;99.90;;;;;;5014624;28;20096;-66
2022/08/17 04:06:01;;;;;;;57.20;22.15;;;19.20;99.90;;;;;;5013972;28;20606;-67
2022/08/17 04:08:29;;;;;;;69.40;22.48;;;19.20;99.90;;;;;;4996903;28;20046;-66
2022/08/17 04:10:56;;;;;;;47.63;22.70;;;19.20;99.90;;;;;;5012678;28;20499;-67
2022/08/17 04:13:22;;;;;;;26.67;22.70;;;19.20;99.90;;;;;;5014083;28;20057;-67
2022/08/17 04:15:48;;;;;;;26.10;22.02;;;19.10;99.90;;;;;;5012215;28;20057;-67
2022/08/17 04:18:15;;;;;;;27.05;23.40;;;19.10;99.90;;;;;;5012960;28;20061;-66
2022/08/17 04:20:42;;;;;;;45.00;21.75;;;19.20;99.90;;;;;;5012564;28;20050;-70
2022/08/17 04:23:11;;;;;;;25.83;22.05;;;19.20;99.90;;;;;;5012659;28;20061;-67
2022/08/17 04:25:41;;;;;;;24.15;21.65;;;19.10;99.90;;;;;;5013694;28;20042;-67
2022/08/17 04:28:06;;;;;;;24.00;21.67;;;19.10;99.90;;;;;;5013618;28;20046;-68
2022/08/17 04:30:34;;;;;;;83.40;25.42;;;19.10;99.90;;;;;;5012642;28;20053;-68
2022/08/17 04:33:02;;;;;;;55.22;21.65;;;19.10;99.90;;;;;;5012303;28;20609;-68
2022/08/17 04:35:40;;;;;;;21.75;19.50;;;19.10;99.90;;;;;;5014174;28;20072;-68
2022/08/17 04:38:08;;;;;;;28.63;21.33;;;19.10;99.90;;;;;;5012389;28;20184;-67
2022/08/17 04:43:21;;;;;;;60.22;22.83;;;19.10;99.90;;;;;;5013882;28;20049;-67
2022/08/17 04:45:50;;;;;;;39.78;22.85;;;19.10;99.90;;;;;;5013144;28;20121;-67
2022/08/17 04:48:16;;;;;;;87.15;24.35;;;19.00;99.90;;;;;;5011981;28;20449;-67
2022/08/17 04:50:45;;;;;;;28.80;22.75;;;19.00;99.90;;;;;;5013385;28;20046;-68
2022/08/17 04:53:12;;;;;;;36.80;22.58;;;19.00;99.90;;;;;;5013705;28;20046;-67
2022/08/17 04:55:39;;;;;;;25.90;23.23;;;19.00;99.90;;;;;;5012742;28;20124;-67
2022/08/17 04:58:05;;;;;;;45.35;24.95;;;19.00;99.90;;;;;;5013077;28;20042;-67
2022/08/17 05:00:31;;;;;;;32.92;24.45;;;19.00;99.90;;;;;;5013442;28;20068;-67
2022/08/17 05:02:57;;;;;;;27.70;24.00;;;19.10;99.90;;;;;;5011186;28;20053;-68
2022/08/17 05:05:26;;;;;;;27.13;24.30;;;19.10;99.90;;;;;;5013390;28;20042;-67
2022/08/17 05:07:57;;;;;;;28.23;25.13;;;19.20;99.90;;;;;;5011902;28;20531;-67
2022/08/17 05:10:26;;;;;;;28.92;25.98;;;19.20;99.90;;;;;;5012942;28;20038;-66
2022/08/17 05:13:00;;;;;;;28.20;25.38;;;19.30;99.90;;;;;;5013000;28;20379;-67
2022/08/17 05:15:26;;;;;;;;;;;19.30;99.90;;;;;;5012692;28;20056;-67
2022/08/17 05:17:52;;;;;;;28.23;25.30;;;19.40;99.90;;;;;;4995438;28;19925;-67
2022/08/17 05:20:18;;;;;;;29.40;26.30;;;19.40;99.90;;;;;;5012717;28;20119;-67
2022/08/17 05:22:52;;;;;;;27.95;25.05;;;19.50;99.90;;;;;;5011950;28;20368;-67
2022/08/17 05:25:23;;;;;;;29.23;26.20;;;19.60;99.90;;;;;;5012235;28;20045;-67
2022/08/17 05:27:48;;;;;;;28.63;25.55;;;19.60;99.90;;;;;;5011414;28;20089;-68
2022/08/17 05:30:15;;;;;;;26.63;23.98;;;19.60;99.90;;;;;;5011104;28;20076;-67
2022/08/17 05:32:55;;;;;;;29.13;25.38;;;19.70;99.90;;;;;;5011407;28;20071;-67
2022/08/17 05:35:22;;;;;;;27.65;24.75;;;19.60;99.90;;;;;;4995091;28;20547;-67
2022/08/17 05:37:48;;;;;;;28.08;25.08;;;19.60;99.90;;;;;;4995348;28;20372;-66
2022/08/17 05:40:14;;;;;;;29.15;26.00;;;19.70;99.90;;;;;;5010416;28;20141;-68
2022/08/17 05:42:41;;;;;;;27.85;25.00;;;19.60;99.90;;;;;;5010901;28;20054;-67
2022/08/17 05:45:07;;;;;;;28.33;25.42;;;19.60;99.90;;;;;;5012247;28;20239;-67
2022/08/17 05:47:33;;;;;;;28.38;25.35;;;19.60;99.90;;;;;;5011491;28;20124;-67
2022/08/17 05:50:00;;;;;;;27.63;24.67;;;19.60;99.90;;;;;;5010403;28;20038;-67
2022/08/17 05:52:53;;;;;;;28.55;25.48;;;19.60;99.90;;;;;;5012142;28;20435;-67
2022/08/17 05:55:30;;;;;;;30.83;27.15;;;19.60;99.90;;;;;;5012051;28;20050;-67
2022/08/17 05:58:30;;;;;;;31.23;27.90;;;19.60;99.90;;;;;;4994118;28;20050;-67
2022/08/17 06:01:30;;;;;;;33.20;29.02;;;19.60;99.90;;;;;;5012000;28;20050;-67
2022/08/17 06:03:56;;;;;;;33.95;30.08;;;19.60;99.90;;;;;;4988126;28;20049;-67
2022/08/17 06:06:43;;;;;;;34.88;30.13;;;19.60;99.90;;;;;;5011199;28;20121;-67
2022/08/17 06:09:33;;;;;;;32.22;28.83;;;19.60;99.90;;;;;;5010912;28;20050;-67
2022/08/17 06:12:06;;;;;;;33.80;30.17;;;19.60;99.90;;;;;;5010293;28;20130;-68
2022/08/17 06:15:02;;;;;;;35.47;31.77;;;19.60;99.90;;;;;;5011787;28;20466;-67
2022/08/17 06:17:28;;;;;;;33.88;30.13;;;19.70;99.90;;;;;;5011397;28;20042;-68
2022/08/17 06:19:58;;;;;;;37.60;31.13;;;19.70;99.90;;;;;;4994522;28;20139;-68
2022/08/17 06:22:31;;;;;;;33.78;30.17;;;19.70;99.90;;;;;;5010653;28;20237;-67
2022/08/17 06:25:04;;;;;;;37.17;33.30;;;19.70;99.90;;;;;;5011959;28;20045;-68
2022/08/17 06:27:45;;;;;;;36.50;30.92;;;19.70;99.90;;;;;;5012057;28;20054;-67
2022/08/17 06:30:33;;;;;;;39.90;33.80;;;19.70;99.90;;;;;;5010367;28;20042;-66
2022/08/17 06:33:09;;;;;;;38.65;33.97;;;19.70;99.90;;;;;;5011212;28;20105;-69
2022/08/17 06:35:47;;;;;;;36.83;32.83;;;19.70;99.90;;;;;;5010929;28;20435;-68
2022/08/17 06:38:20;;;;;;;38.53;34.55;;;19.70;99.90;;;;;;5011437;28;20100;-66
2022/08/17 06:40:46;;;;;;;39.03;34.75;;;19.70;99.90;;;;;;5011877;28;20042;-68
2022/08/17 06:43:26;;;;;;;42.15;35.88;;;19.70;99.90;;;;;;5010172;28;20065;-68
2022/08/17 06:45:57;;;;;;;42.70;35.67;;;19.80;99.90;;;;;;5011674;28;20132;-67
2022/08/17 06:48:39;;;;;;;39.53;34.40;;;19.80;99.90;;;;;;4993832;28;20527;-65
2022/08/17 06:51:24;;;;;;;41.28;36.08;;;19.90;99.90;;;;;;5011191;28;20100;-66
2022/08/17 06:54:12;;;;;;;41.22;35.38;;;19.90;99.90;;;;;;5013521;28;20239;-68
2022/08/17 06:56:54;;;;;;;41.00;36.63;;;19.80;99.90;;;;;;5015725;28;20423;-67
2022/08/17 06:59:25;;;;;;;42.30;35.40;;;19.80;99.90;;;;;;5015521;28;20706;-68
2022/08/17 07:01:51;;;;;;;41.42;36.25;;;19.80;99.90;;;;;;4998389;28;20068;-67
2022/08/17 07:04:22;;;;;;;42.55;36.20;;;19.90;99.90;;;;;;5015167;28;20100;-66
2022/08/17 07:08:00;;;;;;;41.35;36.85;;;19.90;99.90;;;;;;5014333;28;20046;-68
2022/08/17 07:09:58;;;;;;;43.37;35.40;;;19.90;99.90;;;;;;5015219;28;20046;-69
2022/08/17 07:12:36;;;;;;;43.38;37.05;;;19.90;99.90;;;;;;5014650;28;20085;-66
2022/08/17 07:15:10;;;;;;;43.53;36.53;;;19.90;99.90;;;;;;5014938;28;20499;-67
2022/08/17 07:17:39;;;;;;;47.22;38.03;;;20.00;99.90;;;;;;5015336;28;20373;-66
2022/08/17 07:20:16;;;;;;;44.22;37.65;;;20.10;99.90;;;;;;4997348;28;20050;-69
2022/08/17 07:22:45;;;;;;;50.65;38.25;;;20.10;99.90;;;;;;5015342;28;20582;-67
2022/08/17 07:25:16;;;;;;;52.38;40.78;;;20.20;99.90;;;;;;5014899;28;20049;-67
2022/08/17 07:27:49;;;;;;;50.20;40.92;;;20.20;99.90;;;;;;5015307;28;20128;-66
2022/08/17 07:30:31;;;;;;;48.22;41.00;;;20.30;99.90;;;;;;5013586;28;20125;-67
2022/08/17 07:33:07;;;;;;;54.58;42.15;;;20.30;99.90;;;;;;5014993;28;20081;-66
2022/08/17 07:35:43;;;;;;;62.20;45.13;;;20.30;99.90;;;;;;4997797;28;20137;-66
2022/08/17 07:38:22;;;;;;;60.83;45.75;;;20.40;99.90;;;;;;5008758;28;20128;-66
2022/08/17 07:40:56;;;;;;;57.47;45.13;;;20.50;99.90;;;;;;5010871;28;20387;-70
2022/08/17 07:43:40;;;;;;;67.85;50.22;;;20.50;99.90;;;;;;5011904;28;20131;-67
2022/08/17 07:49:08;;;;;;;74.43;54.97;;;20.50;99.90;;;;;;5013272;28;20068;-66
2022/08/17 07:51:42;;;;;;;75.07;55.53;;;20.50;99.90;;;;;;5014752;28;20049;-66
2022/08/17 07:54:14;;;;;;;85.03;58.63;;;20.50;99.90;;;;;;5011416;28;20045;-70
2022/08/17 07:56:45;;;;;;;82.18;58.10;;;20.60;99.90;;;;;;5005966;28;20046;-68
2022/08/17 07:59:25;;;;;;;81.97;56.20;;;20.60;99.90;;;;;;5009966;28;20046;-67
2022/08/17 08:01:57;;;;;;;72.00;52.22;;;20.70;99.90;;;;;;5013918;28;20057;-67
2022/08/17 08:04:28;;;;;;;70.20;53.45;;;20.70;99.90;;;;;;5012412;28;20072;-67
2022/08/17 08:06:58;;;;;;;63.15;50.78;;;20.80;99.90;;;;;;5013235;28;20057;-67
2022/08/17 08:09:45;;;;;;;61.90;48.75;;;20.90;99.90;;;;;;5014030;28;20042;-67
2022/08/17 08:12:40;;;;;;;59.00;49.03;;;21.00;99.90;;;;;;5012598;28;20530;-69
2022/08/17 08:15:24;;;;;;;60.00;46.50;;;21.20;99.90;;;;;;5010484;28;20058;-68
2022/08/17 08:17:59;;;;;;;56.63;47.85;;;21.30;99.90;;;;;;4996796;28;20050;-66
2022/08/17 08:20:39;;;;;;;52.95;43.92;;;21.30;99.90;;;;;;5013975;28;20129;-67
2022/08/17 08:23:27;;;;;;;49.30;42.20;;;21.60;99.90;;;;;;5013138;28;20045;-69
2022/08/17 08:25:56;;;;;;;52.60;44.42;;;21.80;99.90;;;;;;5013405;28;20049;-66
2022/08/17 08:28:28;;;;;;;50.88;45.08;;;21.90;99.90;;;;;;5011245;28;20418;-64
2022/08/17 08:31:14;;;;;;;49.65;41.05;;;22.00;99.90;;;;;;5013994;28;20054;-63
2022/08/17 08:33:45;;;;;;;49.45;40.47;;;22.10;99.90;;;;;;5012859;28;20132;-63
2022/08/17 08:36:14;;;;;;;43.60;38.88;;;22.10;99.90;;;;;;5011370;28;20107;-67
2022/08/17 08:38:55;;;;;;;42.45;37.22;;;22.10;99.90;;;;;;5009423;28;20395;-63
2022/08/17 08:41:48;;;;;;;43.45;37.13;;;22.60;99.90;;;;;;5011861;28;20064;-64
2022/08/17 08:44:46;;;;;;;40.50;36.08;;;23.00;99.90;;;;;;5012101;28;20487;-67
2022/08/17 08:47:30;;;;;;;39.15;34.72;;;23.10;99.90;;;;;;4995939;28;20154;-65
2022/08/17 08:50:39;;;;;;;40.38;36.00;;;23.20;99.90;;;;;;5013479;28;20052;-64
2022/08/17 08:53:17;;;;;;;36.95;32.10;;;23.00;99.90;;;;;;5012487;28;20049;-64
2022/08/17 08:55:49;;;;;;;36.50;32.50;;;22.90;99.90;;;;;;5012509;28;20073;-63
2022/08/17 08:58:42;;;;;;;35.63;32.00;;;22.90;99.90;;;;;;5013172;28;20050;-68
2022/08/17 09:01:43;;;;;;;35.33;31.35;;;22.90;99.90;;;;;;5012352;28;20112;-65
2022/08/17 09:04:24;;;;;;;35.85;32.33;;;22.90;99.90;;;;;;5013014;28;20050;-64
2022/08/17 09:07:09;;;;;;;35.35;31.58;;;22.80;99.90;;;;;;5013057;28;20042;-64
2022/08/17 09:10:05;;;;;;;35.80;32.20;;;22.70;99.90;;;;;;5012601;28;20041;-65
2022/08/17 09:13:09;;;;;;;37.45;33.08;;;22.70;99.90;;;;;;5009976;28;20403;-64
2022/08/17 09:15:43;;;;;;;35.50;31.77;;;22.60;99.90;;;;;;5011721;28;20440;-64
2022/08/17 09:18:18;;;;;;;33.17;29.67;;;22.60;99.90;;;;;;5012872;28;20141;-64
2022/08/17 09:20:49;;;;;;;34.63;30.92;;;22.60;99.90;;;;;;5012904;28;20042;-64
2022/08/17 09:23:31;;;;;;;33.47;29.85;;;22.60;99.90;;;;;;5011920;28;20046;-63
2022/08/17 09:26:09;;;;;;;35.60;31.85;;;22.60;99.90;;;;;;5011647;28;20054;-65
2022/08/17 09:28:37;;;;;;;39.40;30.73;;;22.60;99.90;;;;;;5012333;28;20052;-64
2022/08/17 09:31:14;;;;;;;34.92;31.23;;;22.50;99.90;;;;;;5011698;28;20042;-63
2022/08/17 09:33:44;;;;;;;35.85;31.92;;;22.50;99.90;;;;;;5012259;28;20061;-64
2022/08/17 09:36:32;;;;;;;35.67;31.95;;;22.60;99.90;;;;;;5012473;28;20411;-65
2022/08/17 09:39:07;;;;;;;36.33;32.47;;;22.80;99.90;;;;;;5012251;28;20496;-63
2022/08/17 09:42:07;;;;;;;37.35;33.33;;;23.20;99.90;;;;;;5011294;28;20100;-65
2022/08/17 09:44:52;;;;;;;36.30;31.73;;;23.60;99.90;;;;;;4983917;28;20108;-64
2022/08/17 09:47:55;;;;;;;37.65;33.53;;;23.80;99.90;;;;;;5011343;28;20104;-67
2022/08/17 09:50:27;;;;;;;38.33;34.42;;;23.90;99.90;;;;;;5005142;28;20435;-67
2022/08/17 09:52:56;;;;;;;34.03;30.52;;;24.00;99.90;;;;;;5012183;28;20053;-63
2022/08/17 09:55:51;;;;;;;33.70;30.15;;;24.10;99.90;;;;;;5011951;28;20085;-68
2022/08/17 09:58:44;;;;;;;32.05;28.75;;;23.90;99.90;;;;;;4995638;28;20416;-64
2022/08/17 10:01:30;;;;;;;28.55;25.65;;;23.80;99.90;;;;;;5011255;28;20092;-64
2022/08/17 10:04:14;;;;;;;29.15;26.02;;;23.80;99.90;;;;;;4981155;28;20057;-64
2022/08/17 10:07:08;;;;;;;29.00;25.67;;;23.70;99.90;;;;;;5011668;28;20058;-64
2022/08/17 10:09:58;;;;;;;27.30;24.60;;;23.60;99.90;;;;;;5007706;28;20054;-64
2022/08/17 10:12:50;;;;;;;29.15;25.88;;;23.60;99.90;;;;;;5010161;28;20054;-65
2022/08/17 10:15:40;;;;;;;27.52;24.83;;;23.40;99.90;;;;;;5011911;28;20488;-64
2022/08/17 10:18:22;;;;;;;28.75;25.70;;;23.40;99.90;;;;;;5012149;28;20050;-63
2022/08/17 10:26:11;;;;;;;30.10;26.73;;;23.30;99.90;;;;;;5012097;28;20068;-63
2022/08/17 10:26:33;;;;;;;31.60;28.20;;;23.20;99.90;;;;;;4980026;28;20065;-64
2022/08/17 10:29:12;;;;;;;30.65;27.42;;;23.10;99.90;;;;;;5010454;28;20364;-65
2022/08/17 10:31:46;;;;;;;32.95;29.42;;;23.10;99.90;;;;;;5011359;28;20388;-64
2022/08/17 10:34:33;;;;;;;32.22;28.83;;;23.00;99.90;;;;;;5010785;28;20045;-64
2022/08/17 10:37:24;;;;;;;31.58;27.98;;;23.00;99.90;;;;;;5010545;28;20042;-64
2022/08/17 10:40:14;;;;;;;29.30;26.20;;;23.00;99.90;;;;;;5011873;28;20049;-64
2022/08/17 10:42:50;;;;;;;28.55;25.27;;;23.00;99.90;;;;;;5011071;28;20041;-64
2022/08/17 10:45:38;;;;;;;28.75;25.73;;;23.00;99.90;;;;;;5011724;28;20124;-64
2022/08/17 10:48:04;;;;;;;29.15;26.20;;;23.10;99.90;;;;;;4990279;28;20069;-64
2022/08/17 10:50:58;;;;;;;28.50;25.58;;;23.20;99.90;;;;;;5011128;28;20049;-64
2022/08/17 10:53:30;;;;;;;;;;;23.30;99.90;;;;;;5010978;28;20057;-65
2022/08/17 10:56:11;;;;;;;27.10;24.35;;;23.30;99.90;;;;;;4993960;28;19922;-65
2022/08/17 10:58:53;;;;;;;24.67;22.15;;;23.30;99.90;;;;;;5009976;28;20046;-64
2022/08/17 11:01:40;;;;;;;23.60;21.23;;;23.20;99.90;;;;;;4994383;28;20458;-67
2022/08/17 11:04:33;;;;;;;23.02;20.63;;;23.30;99.90;;;;;;5011239;28;20050;-64
2022/08/17 11:07:26;;;;;;;21.67;19.40;;;23.30;99.90;;;;;;4994128;28;20057;-65
2022/08/17 11:10:30;;;;;;;24.27;21.30;;;23.30;99.90;;;;;;5011149;28;20053;-65
2022/08/17 11:13:07;;;;;;;23.70;20.70;;;23.30;99.90;;;;;;4986963;28;20049;-66
2022/08/17 11:16:11;;;;;;;21.00;18.67;;;23.30;99.90;;;;;;4993770;28;20191;-64
2022/08/17 11:19:16;;;;;;;18.52;16.60;;;23.30;99.90;;;;;;4987973;28;20522;-64
2022/08/17 11:21:41;;;;;;;20.15;16.30;;;23.40;99.90;;;;;;5010477;28;20534;-65
2022/08/17 11:24:36;;;;;;;16.33;14.73;;;23.50;99.90;;;;;;5011225;28;20050;-65
2022/08/17 11:27:18;;;;;;;16.33;13.65;;;23.60;99.90;;;;;;4994097;28;20062;-64
2022/08/17 11:29:54;;;;;;;17.67;13.43;;;23.70;99.90;;;;;;5010779;28;20128;-64
2022/08/17 11:32:31;;;;;;;15.00;12.63;;;23.70;99.90;;;;;;4993832;28;20050;-65
2022/08/17 11:35:21;;;;;;;16.48;13.20;;;23.80;99.90;;;;;;5011170;28;20068;-64
2022/08/17 11:38:08;;;;;;;15.20;12.60;;;23.90;99.90;;;;;;5011142;28;20133;-65
2022/08/17 11:41:02;;;;;;;14.32;12.82;;;24.00;99.90;;;;;;5014897;28;20056;-67
2022/08/17 11:43:42;;;;;;;12.90;11.07;;;24.20;99.90;;;;;;5013702;28;20057;-64
2022/08/17 11:46:19;;;;;;;13.88;11.85;;;24.20;99.90;;;;;;4981590;28;20471;-65
2022/08/17 11:52:31;;;;;;;15.15;11.63;;;24.30;99.90;;;;;;4998879;28;20058;-63
2022/08/17 11:54:58;;;;;;;12.00;10.07;;;24.20;99.90;;;;;;5013832;28;20041;-64
2022/08/17 11:57:26;;;;;;;11.52;9.48;;;24.30;99.90;;;;;;5014478;28;20053;-64
2022/08/17 11:59:53;;;;;;;21.13;11.63;;;24.40;99.90;;;;;;5012984;28;20104;-64
2022/08/17 12:02:26;;;;;;;18.83;14.95;;;24.50;99.90;;;;;;5013061;28;20038;-64
2022/08/17 12:05:08;;;;;;;17.00;13.55;;;24.50;99.90;;;;;;5012954;28;20510;-63
2022/08/17 12:07:41;;;;;;;21.38;17.10;;;24.40;99.90;;;;;;5014448;28;20082;-64
2022/08/17 12:10:10;;;;;;;17.70;15.93;;;24.30;99.90;;;;;;5013106;28;20052;-64
2022/08/17 12:12:42;;;;;;;19.00;15.13;;;24.10;99.90;;;;;;5014005;28;20058;-67
2022/08/17 12:15:16;;;;;;;16.40;14.80;;;24.10;99.90;;;;;;5013259;28;20054;-65
2022/08/17 12:17:51;;;;;;;16.52;14.80;;;24.10;99.90;;;;;;5012476;28;20053;-63
2022/08/17 12:20:33;;;;;;;15.55;13.90;;;24.10;99.90;;;;;;5013211;28;20053;-63
2022/08/17 12:23:15;;;;;;;17.20;13.60;;;24.20;99.90;;;;;;4996269;28;20634;-65
2022/08/17 12:26:20;;;;;;;12.63;11.25;;;24.30;99.90;;;;;;5012770;28;20200;-65
2022/08/17 12:28:48;;;;;;;14.88;12.90;;;24.40;99.90;;;;;;5012415;28;20045;-64
2022/08/17 12:31:23;;;;;;;13.20;11.80;;;24.40;99.90;;;;;;5013996;28;20050;-63
2022/08/17 12:33:50;;;;;;;15.20;13.70;;;24.40;99.90;;;;;;5013719;28;20387;-64
2022/08/17 12:36:20;;;;;;;14.35;12.48;;;24.30;99.90;;;;;;5014026;28;20104;-64
2022/08/17 12:39:00;;;;;;;14.45;12.15;;;24.40;99.90;;;;;;5013837;28;20057;-65
2022/08/17 12:41:37;;;;;;;15.68;12.63;;;24.40;99.90;;;;;;5013771;28;20050;-64
2022/08/17 12:44:19;;;;;;;17.45;13.98;;;24.50;99.90;;;;;;5012337;28;20049;-65
2022/08/17 12:46:50;;;;;;;17.15;13.98;;;24.60;99.90;;;;;;5013270;28;20057;-63
2022/08/17 12:49:25;;;;;;;14.80;12.85;;;24.50;99.90;;;;;;5012248;28;20053;-64
2022/08/17 12:52:00;;;;;;;16.65;13.32;;;24.50;99.90;;;;;;5012116;28;20065;-65
2022/08/17 12:54:48;;;;;;;15.60;12.75;;;24.30;99.90;;;;;;5013414;28;20050;-65
2022/08/17 12:57:43;;;;;;;13.82;11.40;;;24.20;99.90;;;;;;5002526;28;20100;-64
2022/08/17 13:00:41;;;;;;;;;;;24.20;99.90;;;;;;5009513;28;20133;-65
2022/08/17 13:03:18;;;;;;;13.00;11.55;;;24.10;99.90;;;;;;4979430;28;19927;-65
2022/08/17 13:05:59;;;;;;;15.45;12.20;;;24.20;99.90;;;;;;5012138;28;20046;-68
2022/08/17 13:08:34;;;;;;;16.02;12.18;;;24.20;99.90;;;;;;5012898;28;20538;-63
2022/08/17 13:11:10;;;;;;;12.27;10.80;;;24.30;99.90;;;;;;4994981;28;20517;-64
2022/08/17 13:13:39;;;;;;;13.20;11.40;;;24.30;99.90;;;;;;5011806;28;20053;-64
2022/08/17 13:16:22;;;;;;;12.45;11.15;;;24.30;99.90;;;;;;5012828;28;20041;-63
2022/08/17 13:18:50;;;;;;;12.75;11.38;;;24.20;99.90;;;;;;5012641;28;20054;-68
2022/08/17 13:21:29;;;;;;;14.77;12.40;;;24.20;99.90;;;;;;5012129;28;20046;-65
2022/08/17 13:23:58;;;;;;;14.63;12.07;;;24.20;99.90;;;;;;4995280;28;20077;-64
2022/08/17 13:26:37;;;;;;;14.77;12.13;;;24.20;99.90;;;;;;5012972;28;20042;-63
2022/08/17 13:29:07;;;;;;;15.70;11.43;;;24.10;99.90;;;;;;5011396;28;20052;-63